sensor_id;sensor_type;location;lat;lon;timestamp;temperature;humidity
21255;DHT22;10785;50.674;17.954;2024-02-23T00:00:59;8.90;1.00
21255;DHT22;10785;50.674;17.954;2024-02-23T00:03:50;8.80;1.00
21255;DHT22;10785;50.674;17.954;2024-02-23T00:06:38;8.90;1.00
21255;DHT22;10785;50.674;17.954;2024-02-23T00:09:16;8.90;1.00
21255;DHT22;10785;50.674;17.954;2024-02-23T00:11:57;8.90;1.00
21255;DHT22;10785;50.674;17.954;2024-02-23T00:14:42;8.90;1.00
21255;DHT22;10785;50.674;17.954;2024-02-23T00:17:13;8.90;1.00
21255;DHT22;10785;50.674;17.954;2024-02-23T00:19:45;9.00;1.00
21255;DHT22;10785;50.674;17.954;2024-02-23T00:22:16;8.90;1.00
21255;DHT22;10785;50.674;17.954;2024-02-23T00:24:49;8.90;1.00
21255;DHT22;10785;50.674;17.954;2024-02-23T00:27:21;9.10;1.00
21255;DHT22;10785;50.674;17.954;2024-02-23T00:29:56;8.90;18.10
21255;DHT22;10785;50.674;17.954;2024-02-23T00:32:28;8.80;1.00
21255;DHT22;10785;50.674;17.954;2024-02-23T00:35:01;8.60;1.00
21255;DHT22;10785;50.674;17.954;2024-02-23T00:37:42;8.70;1.00
21255;DHT22;10785;50.674;17.954;2024-02-23T00:40:18;8.80;1.00
21255;DHT22;10785;50.674;17.954;2024-02-23T00:43:08;8.80;1.00
21255;DHT22;10785;50.674;17.954;2024-02-23T00:45:59;8.90;1.00
21255;DHT22;10785;50.674;17.954;2024-02-23T00:48:40;8.80;1.00
21255;DHT22;10785;50.674;17.954;2024-02-23T00:51:21;8.60;1.00
21255;DHT22;10785;50.674;17.954;2024-02-23T00:54:02;8.80;1.00
21255;DHT22;10785;50.674;17.954;2024-02-23T00:56:54;8.70;1.00
21255;DHT22;10785;50.674;17.954;2024-02-23T00:59:34;9.30;99.90
21255;DHT22;10785;50.674;17.954;2024-02-23T01:02:19;8.60;99.90
21255;DHT22;10785;50.674;17.954;2024-02-23T01:05:07;8.70;1.00
21255;DHT22;10785;50.674;17.954;2024-02-23T01:07:56;8.40;99.90
21255;DHT22;10785;50.674;17.954;2024-02-23T01:10:34;8.60;99.90
21255;DHT22;10785;50.674;17.954;2024-02-23T01:13:10;9.10;99.90
21255;DHT22;10785;50.674;17.954;2024-02-23T01:15:52;8.60;11.90
21255;DHT22;10785;50.674;17.954;2024-02-23T01:18:35;8.60;1.00
21255;DHT22;10785;50.674;17.954;2024-02-23T01:21:12;8.50;1.00
21255;DHT22;10785;50.674;17.954;2024-02-23T01:23:46;8.70;99.90
21255;DHT22;10785;50.674;17.954;2024-02-23T01:26:26;9.10;99.90
21255;DHT22;10785;50.674;17.954;2024-02-23T01:29:01;8.70;1.00
21255;DHT22;10785;50.674;17.954;2024-02-23T01:31:44;8.70;1.00
21255;DHT22;10785;50.674;17.954;2024-02-23T01:34:31;8.70;99.90
21255;DHT22;10785;50.674;17.954;2024-02-23T01:37:15;9.10;99.90
21255;DHT22;10785;50.674;17.954;2024-02-23T01:40:01;8.90;99.90
21255;DHT22;10785;50.674;17.954;2024-02-23T01:42:47;8.70;99.90
21255;DHT22;10785;50.674;17.954;2024-02-23T01:45:27;8.90;72.60
21255;DHT22;10785;50.674;17.954;2024-02-23T01:48:12;8.70;49.00
21255;DHT22;10785;50.674;17.954;2024-02-23T01:50:58;8.80;2.90
21255;DHT22;10785;50.674;17.954;2024-02-23T01:53:45;8.90;1.00
21255;DHT22;10785;50.674;17.954;2024-02-23T01:56:22;8.80;1.00
21255;DHT22;10785;50.674;17.954;2024-02-23T01:58:57;8.80;1.00
21255;DHT22;10785;50.674;17.954;2024-02-23T02:01:45;8.90;1.00
21255;DHT22;10785;50.674;17.954;2024-02-23T02:04:21;9.00;1.00
21255;DHT22;10785;50.674;17.954;2024-02-23T02:07:07;8.80;1.00
21255;DHT22;10785;50.674;17.954;2024-02-23T02:09:55;8.90;1.00
21255;DHT22;10785;50.674;17.954;2024-02-23T02:12:44;8.90;1.00
21255;DHT22;10785;50.674;17.954;2024-02-23T02:15:28;8.80;1.00
21255;DHT22;10785;50.674;17.954;2024-02-23T02:18:10;9.00;1.00
21255;DHT22;10785;50.674;17.954;2024-02-23T02:20:55;8.90;1.00
21255;DHT22;10785;50.674;17.954;2024-02-23T02:23:37;9.20;1.00
21255;DHT22;10785;50.674;17.954;2024-02-23T02:26:22;9.00;1.00
21255;DHT22;10785;50.674;17.954;2024-02-23T02:28:55;8.90;1.00
21255;DHT22;10785;50.674;17.954;2024-02-23T02:31:38;9.20;1.00
21255;DHT22;10785;50.674;17.954;2024-02-23T02:34:16;8.90;1.00
21255;DHT22;10785;50.674;17.954;2024-02-23T02:36:59;8.90;1.00
21255;DHT22;10785;50.674;17.954;2024-02-23T02:39:45;8.90;1.00
21255;DHT22;10785;50.674;17.954;2024-02-23T02:42:34;8.90;1.00
21255;DHT22;10785;50.674;17.954;2024-02-23T02:45:07;8.90;1.00
21255;DHT22;10785;50.674;17.954;2024-02-23T02:47:45;8.90;1.00
21255;DHT22;10785;50.674;17.954;2024-02-23T02:50:50;8.80;29.90
21255;DHT22;10785;50.674;17.954;2024-02-23T02:53:31;8.80;99.90
21255;DHT22;10785;50.674;17.954;2024-02-23T02:56:30;9.20;99.90
21255;DHT22;10785;50.674;17.954;2024-02-23T02:59:10;8.70;1.00
21255;DHT22;10785;50.674;17.954;2024-02-23T03:01:56;8.70;1.00
21255;DHT22;10785;50.674;17.954;2024-02-23T03:04:47;8.60;1.00
21255;DHT22;10785;50.674;17.954;2024-02-23T03:07:27;8.60;1.00
21255;DHT22;10785;50.674;17.954;2024-02-23T03:10:14;9.20;1.00
21255;DHT22;10785;50.674;17.954;2024-02-23T03:13:03;8.60;1.00
21255;DHT22;10785;50.674;17.954;2024-02-23T03:15:43;8.60;1.00
21255;DHT22;10785;50.674;17.954;2024-02-23T03:18:27;8.60;1.00
21255;DHT22;10785;50.674;17.954;2024-02-23T03:21:08;8.50;99.90
21255;DHT22;10785;50.674;17.954;2024-02-23T03:23:53;9.00;94.00
21255;DHT22;10785;50.674;17.954;2024-02-23T03:26:35;8.10;99.90
21255;DHT22;10785;50.674;17.954;2024-02-23T03:29:12;8.60;99.90
21255;DHT22;10785;50.674;17.954;2024-02-23T03:31:50;8.50;1.00
21255;DHT22;10785;50.674;17.954;2024-02-23T03:34:27;8.80;1.00
21255;DHT22;10785;50.674;17.954;2024-02-23T03:37:08;8.40;99.90
21255;DHT22;10785;50.674;17.954;2024-02-23T03:39:48;8.40;99.90
21255;DHT22;10785;50.674;17.954;2024-02-23T03:42:27;8.40;1.00
21255;DHT22;10785;50.674;17.954;2024-02-23T03:45:12;8.30;1.00
21255;DHT22;10785;50.674;17.954;2024-02-23T03:47:49;8.30;99.90
21255;DHT22;10785;50.674;17.954;2024-02-23T03:50:31;8.30;99.90
21255;DHT22;10785;50.674;17.954;2024-02-23T03:53:06;8.00;1.00
21255;DHT22;10785;50.674;17.954;2024-02-23T03:56:00;8.70;1.00
21255;DHT22;10785;50.674;17.954;2024-02-23T03:58:36;8.10;1.00
21255;DHT22;10785;50.674;17.954;2024-02-23T04:01:27;8.60;1.00
21255;DHT22;10785;50.674;17.954;2024-02-23T04:04:08;8.20;1.00
21255;DHT22;10785;50.674;17.954;2024-02-23T04:06:58;8.40;1.00
21255;DHT22;10785;50.674;17.954;2024-02-23T04:09:42;8.20;1.00
21255;DHT22;10785;50.674;17.954;2024-02-23T04:12:28;8.40;99.90
21255;DHT22;10785;50.674;17.954;2024-02-23T04:15:24;8.30;99.90
21255;DHT22;10785;50.674;17.954;2024-02-23T04:18:14;8.00;1.00
21255;DHT22;10785;50.674;17.954;2024-02-23T04:20:49;8.20;1.00
21255;DHT22;10785;50.674;17.954;2024-02-23T04:23:40;8.40;1.00
21255;DHT22;10785;50.674;17.954;2024-02-23T04:26:20;8.10;1.00
21255;DHT22;10785;50.674;17.954;2024-02-23T04:29:07;8.10;99.90
21255;DHT22;10785;50.674;17.954;2024-02-23T04:31:54;8.50;99.90
21255;DHT22;10785;50.674;17.954;2024-02-23T04:34:46;8.10;1.00
21255;DHT22;10785;50.674;17.954;2024-02-23T04:37:28;8.00;1.00
21255;DHT22;10785;50.674;17.954;2024-02-23T04:40:14;8.10;1.00
21255;DHT22;10785;50.674;17.954;2024-02-23T04:42:54;8.00;99.90
21255;DHT22;10785;50.674;17.954;2024-02-23T04:45:59;7.90;99.90
21255;DHT22;10785;50.674;17.954;2024-02-23T04:48:32;8.00;99.90
21255;DHT22;10785;50.674;17.954;2024-02-23T04:51:20;8.30;99.90
21255;DHT22;10785;50.674;17.954;2024-02-23T04:53:58;7.90;1.00
21255;DHT22;10785;50.674;17.954;2024-02-23T04:56:41;8.30;1.00
21255;DHT22;10785;50.674;17.954;2024-02-23T04:59:20;7.90;1.00
21255;DHT22;10785;50.674;17.954;2024-02-23T05:01:57;7.90;1.00
21255;DHT22;10785;50.674;17.954;2024-02-23T05:04:27;7.90;1.00
21255;DHT22;10785;50.674;17.954;2024-02-23T05:06:58;7.90;1.00
21255;DHT22;10785;50.674;17.954;2024-02-23T05:09:27;7.90;1.00
21255;DHT22;10785;50.674;17.954;2024-02-23T05:11:56;7.90;1.00
21255;DHT22;10785;50.674;17.954;2024-02-23T05:14:26;7.80;1.00
21255;DHT22;10785;50.674;17.954;2024-02-23T05:16:56;8.00;1.00
21255;DHT22;10785;50.674;17.954;2024-02-23T05:19:25;7.80;1.00
21255;DHT22;10785;50.674;17.954;2024-02-23T05:21:54;7.80;1.00
21255;DHT22;10785;50.674;17.954;2024-02-23T05:24:25;7.80;36.20
21255;DHT22;10785;50.674;17.954;2024-02-23T05:26:54;7.80;60.00
21255;DHT22;10785;50.674;17.954;2024-02-23T05:29:25;7.70;99.90
21255;DHT22;10785;50.674;17.954;2024-02-23T05:31:55;7.80;99.90
21255;DHT22;10785;50.674;17.954;2024-02-23T05:34:24;7.80;99.90
21255;DHT22;10785;50.674;17.954;2024-02-23T05:36:54;7.50;99.90
21255;DHT22;10785;50.674;17.954;2024-02-23T05:39:24;7.70;99.90
21255;DHT22;10785;50.674;17.954;2024-02-23T05:41:57;7.60;99.90
21255;DHT22;10785;50.674;17.954;2024-02-23T05:44:39;8.00;99.90
21255;DHT22;10785;50.674;17.954;2024-02-23T05:47:25;7.70;99.90
21255;DHT22;10785;50.674;17.954;2024-02-23T05:50:08;7.70;99.90
21255;DHT22;10785;50.674;17.954;2024-02-23T05:52:44;7.60;99.90
21255;DHT22;10785;50.674;17.954;2024-02-23T05:55:28;8.00;99.90
21255;DHT22;10785;50.674;17.954;2024-02-23T05:58:12;7.50;99.90
21255;DHT22;10785;50.674;17.954;2024-02-23T06:00:48;7.70;99.90
21255;DHT22;10785;50.674;17.954;2024-02-23T06:03:32;7.60;99.90
21255;DHT22;10785;50.674;17.954;2024-02-23T06:06:20;7.70;99.90
21255;DHT22;10785;50.674;17.954;2024-02-23T06:09:01;7.80;99.90
21255;DHT22;10785;50.674;17.954;2024-02-23T06:11:36;7.60;99.90
21255;DHT22;10785;50.674;17.954;2024-02-23T06:14:16;8.10;99.90
21255;DHT22;10785;50.674;17.954;2024-02-23T06:17:00;7.70;99.90
21255;DHT22;10785;50.674;17.954;2024-02-23T06:19:33;7.70;99.90
21255;DHT22;10785;50.674;17.954;2024-02-23T06:22:10;7.70;99.90
21255;DHT22;10785;50.674;17.954;2024-02-23T06:24:54;7.80;99.90
21255;DHT22;10785;50.674;17.954;2024-02-23T06:27:38;7.80;99.90
21255;DHT22;10785;50.674;17.954;2024-02-23T06:30:24;7.80;99.90
21255;DHT22;10785;50.674;17.954;2024-02-23T06:33:10;7.70;99.90
21255;DHT22;10785;50.674;17.954;2024-02-23T06:35:58;7.80;99.90
21255;DHT22;10785;50.674;17.954;2024-02-23T06:38:47;7.70;99.90
21255;DHT22;10785;50.674;17.954;2024-02-23T06:41:33;8.00;99.90
21255;DHT22;10785;50.674;17.954;2024-02-23T06:44:27;7.80;99.90
21255;DHT22;10785;50.674;17.954;2024-02-23T06:47:17;7.80;99.90
21255;DHT22;10785;50.674;17.954;2024-02-23T06:50:03;8.40;99.90
21255;DHT22;10785;50.674;17.954;2024-02-23T06:52:33;7.80;99.90
21255;DHT22;10785;50.674;17.954;2024-02-23T06:55:16;8.50;99.90
21255;DHT22;10785;50.674;17.954;2024-02-23T06:57:56;8.90;99.90
21255;DHT22;10785;50.674;17.954;2024-02-23T07:00:37;8.00;99.90
21255;DHT22;10785;50.674;17.954;2024-02-23T07:03:14;8.30;99.90
21255;DHT22;10785;50.674;17.954;2024-02-23T07:05:45;7.90;99.90
21255;DHT22;10785;50.674;17.954;2024-02-23T07:08:18;7.90;99.90
21255;DHT22;10785;50.674;17.954;2024-02-23T07:10:55;7.90;99.90
21255;DHT22;10785;50.674;17.954;2024-02-23T07:13:29;8.00;99.90
21255;DHT22;10785;50.674;17.954;2024-02-23T07:16:06;7.90;99.90
21255;DHT22;10785;50.674;17.954;2024-02-23T07:18:37;8.00;99.90
21255;DHT22;10785;50.674;17.954;2024-02-23T07:21:06;8.00;99.90
21255;DHT22;10785;50.674;17.954;2024-02-23T07:23:37;8.00;99.90
21255;DHT22;10785;50.674;17.954;2024-02-23T07:26:08;8.20;99.90
21255;DHT22;10785;50.674;17.954;2024-02-23T07:28:40;8.10;99.90
21255;DHT22;10785;50.674;17.954;2024-02-23T07:31:13;8.30;99.90
21255;DHT22;10785;50.674;17.954;2024-02-23T07:33:45;8.10;99.90
21255;DHT22;10785;50.674;17.954;2024-02-23T07:36:16;8.20;99.90
21255;DHT22;10785;50.674;17.954;2024-02-23T07:38:47;8.20;99.90
21255;DHT22;10785;50.674;17.954;2024-02-23T07:41:16;8.20;91.10
21255;DHT22;10785;50.674;17.954;2024-02-23T07:43:59;8.90;74.60
21255;DHT22;10785;50.674;17.954;2024-02-23T07:46:33;8.40;80.50
21255;DHT22;10785;50.674;17.954;2024-02-23T07:49:11;8.30;90.90
21255;DHT22;10785;50.674;17.954;2024-02-23T07:51:53;8.30;77.30
21255;DHT22;10785;50.674;17.954;2024-02-23T07:54:33;8.30;89.90
21255;DHT22;10785;50.674;17.954;2024-02-23T07:57:08;8.30;78.50
21255;DHT22;10785;50.674;17.954;2024-02-23T07:59:48;8.40;24.60
21255;DHT22;10785;50.674;17.954;2024-02-23T08:02:50;8.40;36.20
21255;DHT22;10785;50.674;17.954;2024-02-23T08:05:37;8.40;39.50
21255;DHT22;10785;50.674;17.954;2024-02-23T08:08:22;8.40;1.00
21255;DHT22;10785;50.674;17.954;2024-02-23T08:11:08;8.90;1.00
21255;DHT22;10785;50.674;17.954;2024-02-23T08:13:53;8.50;1.00
21255;DHT22;10785;50.674;17.954;2024-02-23T08:16:39;8.60;1.00
21255;DHT22;10785;50.674;17.954;2024-02-23T08:19:29;8.60;1.00
21255;DHT22;10785;50.674;17.954;2024-02-23T08:22:12;8.60;1.00
21255;DHT22;10785;50.674;17.954;2024-02-23T08:25:01;8.80;1.00
21255;DHT22;10785;50.674;17.954;2024-02-23T08:27:51;8.80;1.00
21255;DHT22;10785;50.674;17.954;2024-02-23T08:30:30;8.80;1.00
21255;DHT22;10785;50.674;17.954;2024-02-23T08:33:06;9.10;1.00
21255;DHT22;10785;50.674;17.954;2024-02-23T08:36:05;8.90;1.00
21255;DHT22;10785;50.674;17.954;2024-02-23T08:38:53;9.10;99.90
21255;DHT22;10785;50.674;17.954;2024-02-23T08:41:40;9.40;1.00
21255;DHT22;10785;50.674;17.954;2024-02-23T08:44:37;9.30;99.90
21255;DHT22;10785;50.674;17.954;2024-02-23T08:47:19;9.50;1.00
21255;DHT22;10785;50.674;17.954;2024-02-23T08:50:15;9.70;1.00
21255;DHT22;10785;50.674;17.954;2024-02-23T08:53:02;10.00;1.00
21255;DHT22;10785;50.674;17.954;2024-02-23T08:55:51;10.20;99.90
21255;DHT22;10785;50.674;17.954;2024-02-23T08:58:40;10.30;1.00
21255;DHT22;10785;50.674;17.954;2024-02-23T09:01:11;10.40;99.90
21255;DHT22;10785;50.674;17.954;2024-02-23T09:03:45;10.50;6.80
21255;DHT22;10785;50.674;17.954;2024-02-23T09:06:27;10.50;1.00
21255;DHT22;10785;50.674;17.954;2024-02-23T09:08:59;10.70;1.00
21255;DHT22;10785;50.674;17.954;2024-02-23T09:11:34;10.90;1.00
21255;DHT22;10785;50.674;17.954;2024-02-23T09:14:06;11.00;1.00
21255;DHT22;10785;50.674;17.954;2024-02-23T09:16:56;11.10;99.90
21255;DHT22;10785;50.674;17.954;2024-02-23T09:19:39;11.10;99.90
21255;DHT22;10785;50.674;17.954;2024-02-23T09:22:34;11.20;99.90
21255;DHT22;10785;50.674;17.954;2024-02-23T09:25:13;10.90;99.90
21255;DHT22;10785;50.674;17.954;2024-02-23T09:27:59;11.20;99.90
21255;DHT22;10785;50.674;17.954;2024-02-23T09:30:39;11.20;99.90
21255;DHT22;10785;50.674;17.954;2024-02-23T09:33:23;11.20;99.90
21255;DHT22;10785;50.674;17.954;2024-02-23T09:36:00;11.30;99.90
21255;DHT22;10785;50.674;17.954;2024-02-23T09:38:37;11.30;99.90
21255;DHT22;10785;50.674;17.954;2024-02-23T09:41:21;11.30;99.90
21255;DHT22;10785;50.674;17.954;2024-02-23T09:43:51;11.40;99.90
21255;DHT22;10785;50.674;17.954;2024-02-23T09:46:22;12.00;99.90
21255;DHT22;10785;50.674;17.954;2024-02-23T09:48:55;11.40;99.90
21255;DHT22;10785;50.674;17.954;2024-02-23T09:51:27;11.30;99.90
21255;DHT22;10785;50.674;17.954;2024-02-23T09:54:00;11.30;99.90
21255;DHT22;10785;50.674;17.954;2024-02-23T09:56:33;11.30;96.40
21255;DHT22;10785;50.674;17.954;2024-02-23T09:59:05;11.30;90.80
21255;DHT22;10785;50.674;17.954;2024-02-23T10:01:37;11.40;28.10
21255;DHT22;10785;50.674;17.954;2024-02-23T10:04:10;11.40;1.00
21255;DHT22;10785;50.674;17.954;2024-02-23T10:06:45;11.60;1.00
21255;DHT22;10785;50.674;17.954;2024-02-23T10:09:18;11.80;1.00
21255;DHT22;10785;50.674;17.954;2024-02-23T10:11:56;11.60;1.00
21255;DHT22;10785;50.674;17.954;2024-02-23T10:14:29;11.60;1.00
21255;DHT22;10785;50.674;17.954;2024-02-23T10:17:00;11.70;1.00
21255;DHT22;10785;50.674;17.954;2024-02-23T10:19:33;11.70;1.00
21255;DHT22;10785;50.674;17.954;2024-02-23T10:22:06;11.80;1.00
21255;DHT22;10785;50.674;17.954;2024-02-23T10:24:38;11.80;1.00
21255;DHT22;10785;50.674;17.954;2024-02-23T10:27:14;11.80;1.00
21255;DHT22;10785;50.674;17.954;2024-02-23T10:29:44;11.90;1.00
21255;DHT22;10785;50.674;17.954;2024-02-23T10:32:32;11.70;1.00
21255;DHT22;10785;50.674;17.954;2024-02-23T10:35:11;11.60;1.00
21255;DHT22;10785;50.674;17.954;2024-02-23T10:37:59;11.70;1.00
21255;DHT22;10785;50.674;17.954;2024-02-23T10:40:39;11.60;1.00
21255;DHT22;10785;50.674;17.954;2024-02-23T10:43:19;11.60;1.00
21255;DHT22;10785;50.674;17.954;2024-02-23T10:46:00;11.70;1.00
21255;DHT22;10785;50.674;17.954;2024-02-23T10:48:42;11.60;1.00
21255;DHT22;10785;50.674;17.954;2024-02-23T10:51:22;11.80;1.00
21255;DHT22;10785;50.674;17.954;2024-02-23T10:53:58;11.70;1.00
21255;DHT22;10785;50.674;17.954;2024-02-23T10:56:36;11.70;1.00
21255;DHT22;10785;50.674;17.954;2024-02-23T10:59:14;11.70;1.00
21255;DHT22;10785;50.674;17.954;2024-02-23T11:01:55;11.70;1.00
21255;DHT22;10785;50.674;17.954;2024-02-23T11:04:35;11.80;1.00
21255;DHT22;10785;50.674;17.954;2024-02-23T11:07:19;11.80;1.00
21255;DHT22;10785;50.674;17.954;2024-02-23T11:10:07;11.90;1.00
21255;DHT22;10785;50.674;17.954;2024-02-23T11:12:45;11.80;1.00
21255;DHT22;10785;50.674;17.954;2024-02-23T11:15:28;11.80;1.00
21255;DHT22;10785;50.674;17.954;2024-02-23T11:18:02;12.00;1.00
21255;DHT22;10785;50.674;17.954;2024-02-23T11:20:37;12.40;1.00
21255;DHT22;10785;50.674;17.954;2024-02-23T11:23:19;12.40;1.00
21255;DHT22;10785;50.674;17.954;2024-02-23T11:26:05;12.10;1.00
21255;DHT22;10785;50.674;17.954;2024-02-23T11:28:55;12.20;1.00
21255;DHT22;10785;50.674;17.954;2024-02-23T11:31:48;12.10;1.00
21255;DHT22;10785;50.674;17.954;2024-02-23T11:34:35;12.10;1.00
21255;DHT22;10785;50.674;17.954;2024-02-23T11:37:22;11.20;1.00
21255;DHT22;10785;50.674;17.954;2024-02-23T11:40:06;12.10;1.00
21255;DHT22;10785;50.674;17.954;2024-02-23T11:42:54;12.10;99.90
21255;DHT22;10785;50.674;17.954;2024-02-23T11:45:41;12.10;1.00
21255;DHT22;10785;50.674;17.954;2024-02-23T11:48:33;12.20;1.00
21255;DHT22;10785;50.674;17.954;2024-02-23T11:51:18;12.00;99.90
21255;DHT22;10785;50.674;17.954;2024-02-23T11:54:11;12.10;99.90
21255;DHT22;10785;50.674;17.954;2024-02-23T11:56:59;12.00;99.90
21255;DHT22;10785;50.674;17.954;2024-02-23T11:59:54;12.00;99.90
21255;DHT22;10785;50.674;17.954;2024-02-23T12:02:44;12.20;99.90
21255;DHT22;10785;50.674;17.954;2024-02-23T12:05:39;12.30;99.90
21255;DHT22;10785;50.674;17.954;2024-02-23T12:08:20;12.40;99.90
21255;DHT22;10785;50.674;17.954;2024-02-23T12:10:56;12.30;99.90
21255;DHT22;10785;50.674;17.954;2024-02-23T12:13:39;12.30;99.90
21255;DHT22;10785;50.674;17.954;2024-02-23T12:16:15;12.50;99.90
21255;DHT22;10785;50.674;17.954;2024-02-23T12:21:49;12.40;99.90
21255;DHT22;10785;50.674;17.954;2024-02-23T12:24:31;12.30;99.90
21255;DHT22;10785;50.674;17.954;2024-02-23T12:27:17;12.20;99.90
21255;DHT22;10785;50.674;17.954;2024-02-23T12:30:17;12.10;99.90
21255;DHT22;10785;50.674;17.954;2024-02-23T12:33:09;11.90;99.90
21255;DHT22;10785;50.674;17.954;2024-02-23T12:36:04;12.00;99.90
21255;DHT22;10785;50.674;17.954;2024-02-23T12:38:41;12.00;99.90
21255;DHT22;10785;50.674;17.954;2024-02-23T12:41:14;11.90;99.90
21255;DHT22;10785;50.674;17.954;2024-02-23T12:43:46;11.90;99.90
21255;DHT22;10785;50.674;17.954;2024-02-23T12:46:16;12.00;99.90
21255;DHT22;10785;50.674;17.954;2024-02-23T12:48:45;12.10;99.90
21255;DHT22;10785;50.674;17.954;2024-02-23T12:51:15;12.10;99.90
21255;DHT22;10785;50.674;17.954;2024-02-23T12:53:47;12.00;99.90
21255;DHT22;10785;50.674;17.954;2024-02-23T12:56:18;11.90;99.90
21255;DHT22;10785;50.674;17.954;2024-02-23T12:58:52;11.90;99.90
21255;DHT22;10785;50.674;17.954;2024-02-23T13:01:22;11.80;99.90
21255;DHT22;10785;50.674;17.954;2024-02-23T13:04:00;11.80;99.90
21255;DHT22;10785;50.674;17.954;2024-02-23T13:06:31;11.60;99.90
21255;DHT22;10785;50.674;17.954;2024-02-23T13:09:07;11.60;99.90
21255;DHT22;10785;50.674;17.954;2024-02-23T13:11:58;11.60;99.90
21255;DHT22;10785;50.674;17.954;2024-02-23T13:14:40;11.50;99.90
21255;DHT22;10785;50.674;17.954;2024-02-23T13:17:25;11.40;99.90
21255;DHT22;10785;50.674;17.954;2024-02-23T13:20:12;11.40;99.90
21255;DHT22;10785;50.674;17.954;2024-02-23T13:22:46;11.20;99.90
21255;DHT22;10785;50.674;17.954;2024-02-23T13:25:41;11.30;99.90
21255;DHT22;10785;50.674;17.954;2024-02-23T13:28:26;11.30;99.90
21255;DHT22;10785;50.674;17.954;2024-02-23T13:31:10;11.30;99.90
21255;DHT22;10785;50.674;17.954;2024-02-23T13:33:58;11.20;99.90
21255;DHT22;10785;50.674;17.954;2024-02-23T13:36:49;11.10;99.90
21255;DHT22;10785;50.674;17.954;2024-02-23T13:39:35;11.20;99.90
21255;DHT22;10785;50.674;17.954;2024-02-23T13:42:15;11.10;99.90
21255;DHT22;10785;50.674;17.954;2024-02-23T13:45:05;10.90;99.90
21255;DHT22;10785;50.674;17.954;2024-02-23T13:48:00;10.80;99.90
21255;DHT22;10785;50.674;17.954;2024-02-23T13:50:45;10.80;99.90
21255;DHT22;10785;50.674;17.954;2024-02-23T13:53:34;10.70;99.90
21255;DHT22;10785;50.674;17.954;2024-02-23T13:56:24;10.50;99.90
21255;DHT22;10785;50.674;17.954;2024-02-23T13:59:05;10.30;99.90
21255;DHT22;10785;50.674;17.954;2024-02-23T14:01:59;10.40;99.90
21255;DHT22;10785;50.674;17.954;2024-02-23T14:04:55;10.30;99.90
21255;DHT22;10785;50.674;17.954;2024-02-23T14:07:46;10.30;99.90
21255;DHT22;10785;50.674;17.954;2024-02-23T14:10:27;10.10;99.90
21255;DHT22;10785;50.674;17.954;2024-02-23T14:13:05;10.00;99.90
21255;DHT22;10785;50.674;17.954;2024-02-23T14:15:50;10.10;99.90
21255;DHT22;10785;50.674;17.954;2024-02-23T14:18:32;10.00;99.90
21255;DHT22;10785;50.674;17.954;2024-02-23T14:21:07;9.90;99.90
21255;DHT22;10785;50.674;17.954;2024-02-23T14:23:38;10.00;99.90
21255;DHT22;10785;50.674;17.954;2024-02-23T14:26:11;9.80;99.90
21255;DHT22;10785;50.674;17.954;2024-02-23T14:28:40;10.00;99.90
21255;DHT22;10785;50.674;17.954;2024-02-23T14:31:24;9.70;99.90
21255;DHT22;10785;50.674;17.954;2024-02-23T14:33:58;9.60;99.90
21255;DHT22;10785;50.674;17.954;2024-02-23T14:36:40;9.60;99.90
21255;DHT22;10785;50.674;17.954;2024-02-23T14:39:17;9.70;99.90
21255;DHT22;10785;50.674;17.954;2024-02-23T14:41:54;9.70;99.90
21255;DHT22;10785;50.674;17.954;2024-02-23T14:44:31;9.70;99.90
21255;DHT22;10785;50.674;17.954;2024-02-23T14:47:15;10.70;99.90
21255;DHT22;10785;50.674;17.954;2024-02-23T14:50:10;9.60;99.90
21255;DHT22;10785;50.674;17.954;2024-02-23T14:52:50;9.60;99.90
21255;DHT22;10785;50.674;17.954;2024-02-23T14:55:30;9.70;99.90
21255;DHT22;10785;50.674;17.954;2024-02-23T14:58:19;9.60;99.90
21255;DHT22;10785;50.674;17.954;2024-02-23T15:01:07;9.60;99.90
21255;DHT22;10785;50.674;17.954;2024-02-23T15:03:57;9.60;99.90
21255;DHT22;10785;50.674;17.954;2024-02-23T15:06:43;9.60;99.90
21255;DHT22;10785;50.674;17.954;2024-02-23T15:09:28;9.40;99.90
21255;DHT22;10785;50.674;17.954;2024-02-23T15:12:18;9.40;99.90
21255;DHT22;10785;50.674;17.954;2024-02-23T15:15:01;9.30;99.90
21255;DHT22;10785;50.674;17.954;2024-02-23T15:17:31;9.20;99.90
21255;DHT22;10785;50.674;17.954;2024-02-23T15:20:02;9.00;99.90
21255;DHT22;10785;50.674;17.954;2024-02-23T15:22:31;9.10;99.90
21255;DHT22;10785;50.674;17.954;2024-02-23T15:25:00;9.00;99.90
21255;DHT22;10785;50.674;17.954;2024-02-23T15:27:31;9.00;99.90
21255;DHT22;10785;50.674;17.954;2024-02-23T15:30:00;7.90;1.00
21255;DHT22;10785;50.674;17.954;2024-02-23T15:32:31;8.90;1.00
21255;DHT22;10785;50.674;17.954;2024-02-23T15:35:01;8.80;1.00
21255;DHT22;10785;50.674;17.954;2024-02-23T15:37:32;8.70;1.00
21255;DHT22;10785;50.674;17.954;2024-02-23T15:40:01;9.00;1.00
21255;DHT22;10785;50.674;17.954;2024-02-23T15:42:31;8.80;1.00
21255;DHT22;10785;50.674;17.954;2024-02-23T15:45:04;8.80;1.00
21255;DHT22;10785;50.674;17.954;2024-02-23T15:47:35;8.70;1.00
21255;DHT22;10785;50.674;17.954;2024-02-23T15:50:06;8.60;1.00
21255;DHT22;10785;50.674;17.954;2024-02-23T15:52:56;8.70;1.00
21255;DHT22;10785;50.674;17.954;2024-02-23T15:55:26;8.60;1.00
21255;DHT22;10785;50.674;17.954;2024-02-23T15:57:55;8.50;1.00
21255;DHT22;10785;50.674;17.954;2024-02-23T16:00:24;8.60;1.00
21255;DHT22;10785;50.674;17.954;2024-02-23T16:02:54;8.90;1.00
21255;DHT22;10785;50.674;17.954;2024-02-23T16:05:26;8.50;1.00
21255;DHT22;10785;50.674;17.954;2024-02-23T16:07:55;8.30;1.00
21255;DHT22;10785;50.674;17.954;2024-02-23T16:10:25;8.40;1.00
21255;DHT22;10785;50.674;17.954;2024-02-23T16:12:54;8.40;1.00
21255;DHT22;10785;50.674;17.954;2024-02-23T16:15:26;8.40;1.00
21255;DHT22;10785;50.674;17.954;2024-02-23T16:17:56;8.40;1.00
21255;DHT22;10785;50.674;17.954;2024-02-23T16:20:28;8.30;1.00
21255;DHT22;10785;50.674;17.954;2024-02-23T16:22:58;8.30;1.00
21255;DHT22;10785;50.674;17.954;2024-02-23T16:25:27;8.60;1.00
21255;DHT22;10785;50.674;17.954;2024-02-23T16:27:58;8.40;1.00
21255;DHT22;10785;50.674;17.954;2024-02-23T16:30:28;8.40;1.00
21255;DHT22;10785;50.674;17.954;2024-02-23T16:32:58;8.10;1.00
21255;DHT22;10785;50.674;17.954;2024-02-23T16:35:36;8.00;1.00
21255;DHT22;10785;50.674;17.954;2024-02-23T16:38:23;8.00;1.00
21255;DHT22;10785;50.674;17.954;2024-02-23T16:41:16;8.20;1.00
21255;DHT22;10785;50.674;17.954;2024-02-23T16:44:12;8.00;1.00
21255;DHT22;10785;50.674;17.954;2024-02-23T16:46:56;7.90;1.00
21255;DHT22;10785;50.674;17.954;2024-02-23T16:49:27;7.90;1.00
21255;DHT22;10785;50.674;17.954;2024-02-23T16:52:02;7.90;1.00
21255;DHT22;10785;50.674;17.954;2024-02-23T16:54:41;7.80;1.00
21255;DHT22;10785;50.674;17.954;2024-02-23T16:57:19;7.80;1.00